Time;durP1;ratioP1;P1;durP2;ratioP2;P2;SDS_P1;SDS_P2;PMS_P1;PMS_P2;Temp;Humidity;BMP_temperature;BMP_pressure;BME280_temperature;BME280_humidity;BME280_pressure;Samples;Min_cycle;Max_cycle;Signal;HPM_P1;HPM_P2
2021/11/28 00:00:46;;;;;;;73.75;37.45;;;;;;;1.55;92.86;96232.31;1771536;81;20953;-56
2021/11/28 00:03:15;;;;;;;74.05;38.48;;;;;;;1.55;93.55;96234.45;1771235;79;21435;-57
2021/11/28 00:05:42;;;;;;;77.62;38.10;;;;;;;1.52;93.67;96230.16;1771518;80;21080;-57
2021/11/28 00:08:18;;;;;;;82.67;43.92;;;;;;;1.43;93.60;96221.87;1771097;79;21652;-56
2021/11/28 00:13:07;;;;;;;95.30;46.60;;;;;;;1.29;93.94;96222.13;1784591;79;20890;-57
2021/11/28 00:15:32;;;;;;;96.85;45.48;;;;;;;1.23;95.19;96220.51;1779315;79;21472;-57
2021/11/28 00:17:58;;;;;;;100.40;49.58;;;;;;;1.28;94.17;96229.84;1771208;80;20949;-57
2021/11/28 00:20:24;;;;;;;105.35;48.35;;;;;;;1.22;93.58;96233.05;1788832;79;21553;-57
2021/11/28 00:22:50;;;;;;;92.92;44.65;;;;;;;1.23;93.58;96234.64;1804205;78;21026;-57
2021/11/28 00:25:18;;;;;;;101.53;48.13;;;;;;;1.18;93.75;96227.95;1756298;80;20861;-56
2021/11/28 00:27:45;;;;;;;96.72;45.17;;;;;;;1.09;96.08;96220.99;1752447;80;21088;-57
2021/11/28 00:30:18;;;;;;;101.10;47.40;;;;;;;1.11;96.55;96225.56;1752309;81;21491;-56
2021/11/28 00:32:44;;;;;;;93.00;45.40;;;;;;;1.15;97.23;96222.35;1752378;80;21016;-57
2021/11/28 00:35:10;;;;;;;84.17;41.55;;;;;;;1.19;97.30;96215.41;1752399;81;20954;-57
2021/11/28 00:37:36;;;;;;;94.13;44.50;;;;;;;1.23;96.47;96215.17;1744583;82;20890;-57
2021/11/28 00:40:03;;;;;;;91.50;44.42;;;;;;;1.25;96.09;96215.70;1765414;80;20843;-57
2021/11/28 00:42:29;;;;;;;94.60;44.65;;;;;;;1.27;95.22;96221.03;1781672;79;21484;-56
2021/11/28 00:44:56;;;;;;;89.05;42.45;;;;;;;1.26;95.48;96218.10;1780234;80;21581;-57
2021/11/28 00:47:22;;;;;;;83.03;41.77;;;;;;;1.27;95.55;96217.56;1779741;80;21583;-57
2021/11/28 00:50:03;;;;;;;88.55;43.00;;;;;;;1.28;94.60;96215.99;1780253;80;20845;-56
2021/11/28 00:52:18;;;;;;;87.05;42.83;;;;;;;1.27;94.29;96217.03;1777784;80;21156;-56
2021/11/28 00:54:46;;;;;;;81.35;42.10;;;;;;;1.28;94.12;96220.00;1780923;79;21070;-56
2021/11/28 00:57:12;;;;;;;85.28;44.95;;;;;;;1.22;94.66;96221.04;1780095;79;21173;-56
2021/11/28 00:59:38;;;;;;;86.57;43.60;;;;;;;1.25;94.84;96224.51;1780177;79;20893;-56
2021/11/28 01:02:04;;;;;;;82.80;41.88;;;;;;;1.31;94.90;96232.80;1780155;79;20890;-57
2021/11/28 01:04:30;;;;;;;95.53;47.43;;;;;;;1.41;94.67;96244.02;1780372;79;20850;-57
2021/11/28 01:06:56;;;;;;;83.95;44.05;;;;;;;1.49;94.55;96224.82;1780241;79;20948;-57
2021/11/28 01:09:22;;;;;;;84.58;42.53;;;;;;;1.58;94.90;96225.09;1779902;79;22395;-57
2021/11/28 01:11:48;;;;;;;77.80;39.67;;;;;;;1.61;94.51;96233.90;1780077;79;20999;-57
2021/11/28 01:14:14;;;;;;;80.42;43.40;;;;;;;1.50;94.38;96221.08;1776973;79;20894;-56
2021/11/28 01:16:43;;;;;;;111.17;52.60;;;;;;;1.50;94.33;96218.95;1773257;80;20973;-57
2021/11/28 01:19:07;;;;;;;85.92;41.37;;;;;;;1.48;94.24;96223.76;1778084;80;20969;-56
2021/11/28 01:21:33;;;;;;;73.30;39.13;;;;;;;1.44;94.71;96227.47;1779992;80;22503;-57
2021/11/28 01:23:59;;;;;;;74.27;37.70;;;;;;;1.46;94.60;96225.36;1779912;79;22582;-57
2021/11/28 01:26:27;;;;;;;78.60;38.23;;;;;;;1.51;94.67;96213.34;1780490;79;20850;-57
2021/11/28 01:28:53;;;;;;;77.15;39.73;;;;;;;1.55;95.07;96222.44;1779843;79;21222;-57
2021/11/28 01:31:19;;;;;;;72.50;38.53;;;;;;;1.54;94.19;96212.83;1780220;79;20989;-57
2021/11/28 01:33:45;;;;;;;73.25;39.00;;;;;;;1.49;94.37;96207.47;1779842;79;21702;-56
2021/11/28 01:36:11;;;;;;;73.15;36.90;;;;;;;1.49;94.01;96206.13;1776917;79;21236;-55
2021/11/28 01:38:37;;;;;;;69.15;34.60;;;;;;;1.45;94.24;96205.58;1752760;80;20859;-57
2021/11/28 01:41:03;;;;;;;71.95;36.25;;;;;;;1.43;93.87;96201.05;1773004;80;20867;-57
2021/11/28 01:43:29;;;;;;;69.15;32.03;;;;;;;1.38;94.06;96205.33;1773668;80;21005;-57
2021/11/28 01:45:55;;;;;;;76.95;39.55;;;;;;;1.30;94.21;96197.05;1779748;79;21507;-56
2021/11/28 01:48:22;;;;;;;66.87;36.13;;;;;;;1.19;94.09;96210.08;1779503;79;20897;-56
2021/11/28 01:50:50;;;;;;;87.67;42.15;;;;;;;1.09;94.24;96218.33;1776384;80;21545;-57
2021/11/28 01:53:23;;;;;;;85.55;41.90;;;;;;;1.06;94.33;96225.53;1766179;80;21018;-56
2021/11/28 01:55:49;;;;;;;89.60;42.78;;;;;;;1.07;94.91;96229.80;1780290;79;21009;-57
2021/11/28 01:58:15;;;;;;;77.85;37.48;;;;;;;1.16;96.11;96231.42;1779907;79;22475;-56
2021/11/28 02:00:46;;;;;;;78.75;37.33;;;;;;;1.18;96.65;96236.48;1780001;79;20846;-57
2021/11/28 02:03:12;;;;;;;90.20;41.33;;;;;;;1.19;96.57;96239.42;1780019;79;20993;-56
2021/11/28 02:05:41;;;;;;;80.25;40.05;;;;;;;1.18;96.53;96233.29;1779992;79;21490;-56
2021/11/28 02:08:07;;;;;;;;;;;;;;;1.20;96.19;96237.85;1782820;79;21608;-57
2021/11/28 02:10:33;;;;;;;81.40;42.88;;;;;;;1.18;96.18;96240.49;1763663;80;21472;-56
2021/11/28 02:12:59;;;;;;;75.12;34.55;;;;;;;1.21;96.16;96237.32;1763177;79;21153;-57
2021/11/28 02:15:25;;;;;;;76.30;38.08;;;;;;;1.19;95.15;96226.89;1763431;81;20898;-57
2021/11/28 02:17:54;;;;;;;70.37;36.35;;;;;;;1.16;95.12;96221.28;1763087;81;20949;-56
2021/11/28 02:20:23;;;;;;;71.50;35.28;;;;;;;1.16;94.99;96226.62;1763358;80;21147;-56
2021/11/28 02:22:49;;;;;;;74.60;36.93;;;;;;;1.16;95.20;96228.75;1763142;79;21711;-56
2021/11/28 02:25:15;;;;;;;69.67;32.40;;;;;;;1.17;94.98;96225.55;1763326;81;21028;-56
2021/11/28 02:27:41;;;;;;;77.45;37.65;;;;;;;1.14;94.64;96229.56;1763411;79;21924;-56
2021/11/28 02:30:09;;;;;;;73.92;35.30;;;;;;;1.15;95.00;96234.36;1763245;81;21137;-57
2021/11/28 02:32:35;;;;;;;80.17;37.23;;;;;;;1.17;95.56;96242.36;1762988;79;21448;-56
2021/11/28 02:35:01;;;;;;;83.03;39.92;;;;;;;1.21;94.95;96238.66;1767169;80;21006;-56
2021/11/28 02:37:27;;;;;;;79.37;38.40;;;;;;;1.23;95.31;96242.66;1776397;80;20838;-56
2021/11/28 02:39:53;;;;;;;82.95;37.65;;;;;;;1.23;94.78;96245.32;1752425;80;21049;-57
2021/11/28 02:42:20;;;;;;;79.00;37.00;;;;;;;1.25;95.48;96245.86;1747468;80;21033;-56
2021/11/28 02:44:46;;;;;;;80.32;38.73;;;;;;;1.27;95.12;96248.25;1763423;80;21026;-56
2021/11/28 02:47:12;;;;;;;69.15;34.23;;;;;;;1.24;95.70;96256.26;1763180;79;22397;-56
2021/11/28 02:49:38;;;;;;;81.35;38.20;;;;;;;1.26;95.38;96249.32;1763347;81;20855;-56
2021/11/28 02:52:10;;;;;;;72.80;33.35;;;;;;;1.24;95.79;96247.45;1764542;81;20881;-56
2021/11/28 02:54:36;;;;;;;71.55;33.80;;;;;;;1.22;96.06;96245.05;1744541;81;21022;-56
2021/11/28 02:57:03;;;;;;;67.42;31.55;;;;;;;1.20;95.99;96240.52;1763347;79;21026;-57
2021/11/28 02:59:30;;;;;;;64.03;29.57;;;;;;;1.18;95.49;96248.50;1762610;81;39964;-57
2021/11/28 03:01:56;;;;;;;64.65;34.53;;;;;;;1.14;95.71;96256.23;1762901;81;21022;-56
2021/11/28 03:04:22;;;;;;;65.67;31.33;;;;;;;1.14;95.40;96242.89;1763096;81;20843;-56
2021/11/28 03:06:48;;;;;;;65.72;33.80;;;;;;;1.09;96.18;96237.00;1763355;81;20855;-56
2021/11/28 03:09:14;;;;;;;62.95;32.63;;;;;;;1.12;95.98;96239.16;1763118;79;21047;-56
2021/11/28 03:11:40;;;;;;;56.95;31.12;;;;;;;1.15;95.63;96231.16;1763001;81;21566;-57
2021/11/28 03:14:06;;;;;;;68.62;32.30;;;;;;;1.17;95.86;96234.89;1762930;79;21009;-56
2021/11/28 03:16:32;;;;;;;59.65;28.92;;;;;;;1.18;95.11;96235.95;1763259;81;20886;-57
2021/11/28 03:18:58;;;;;;;67.12;33.63;;;;;;;1.14;94.77;96236.23;1762980;79;21617;-56
2021/11/28 03:21:27;;;;;;;74.25;36.45;;;;;;;1.09;94.63;96233.53;1763241;81;20991;-56
2021/11/28 03:23:57;;;;;;;56.10;29.92;;;;;;;1.09;94.57;96238.34;1763044;79;21234;-56
2021/11/28 03:26:29;;;;;;;68.92;33.10;;;;;;;1.05;94.50;96240.47;1763308;80;21078;-56
2021/11/28 03:29:08;;;;;;;63.23;32.28;;;;;;;1.05;94.81;96235.94;1763080;79;21025;-57
2021/11/28 03:31:37;;;;;;;61.68;34.58;;;;;;;1.10;94.66;96237.80;1763522;81;21053;-57
2021/11/28 03:34:04;;;;;;;70.57;38.35;;;;;;;1.08;94.92;96252.73;1764739;79;21013;-57
2021/11/28 03:36:30;;;;;;;68.47;32.15;;;;;;;1.17;94.87;96259.70;1772344;80;22014;-56
2021/11/28 03:38:56;;;;;;;71.82;33.42;;;;;;;1.22;94.82;96254.39;1755528;80;21045;-56
2021/11/28 03:41:24;;;;;;;64.12;32.40;;;;;;;1.22;95.26;96251.72;1796448;79;20886;-57
2021/11/28 03:43:51;;;;;;;66.92;33.33;;;;;;;1.26;95.08;96262.66;1775313;80;21041;-56
2021/11/28 03:46:17;;;;;;;60.05;31.12;;;;;;;1.30;94.70;96259.75;1774302;80;21029;-56
2021/11/28 03:48:43;;;;;;;65.72;32.05;;;;;;;1.35;94.75;96266.42;1776159;80;22104;-56
2021/11/28 03:51:09;;;;;;;60.80;31.62;;;;;;;1.32;95.28;96263.75;1776472;80;21679;-56
2021/11/28 03:53:35;;;;;;;61.75;31.95;;;;;;;1.36;94.93;96266.16;1775715;79;21032;-56
2021/11/28 03:56:04;;;;;;;65.17;31.97;;;;;;;1.38;94.81;96266.72;1771114;81;21079;-56
2021/11/28 03:58:29;;;;;;;67.67;32.30;;;;;;;1.45;94.75;96262.44;1770686;79;21001;-57
2021/11/28 04:00:57;;;;;;;68.35;32.17;;;;;;;1.51;94.72;96257.92;1771453;80;21757;-56
2021/11/28 04:03:22;;;;;;;65.17;32.95;;;;;;;1.53;94.73;96255.24;1771076;81;21469;-56
2021/11/28 04:05:48;;;;;;;74.00;36.63;;;;;;;1.57;94.67;96236.84;1771498;80;20890;-57
2021/11/28 04:08:14;;;;;;;68.60;32.95;;;;;;;1.62;94.75;96228.83;1771263;79;20859;-57
2021/11/28 04:10:40;;;;;;;79.77;35.88;;;;;;;1.61;94.55;96235.23;1771544;81;22526;-57
2021/11/28 04:13:07;;;;;;;65.97;33.98;;;;;;;1.58;94.43;96241.12;1771192;79;21241;-57
2021/11/28 04:15:33;;;;;;;65.47;33.05;;;;;;;1.58;94.35;96231.77;1776975;80;21084;-57
2021/11/28 04:17:59;;;;;;;71.05;35.73;;;;;;;1.50;94.24;96230.42;1784518;80;21593;-57
2021/11/28 04:20:25;;;;;;;68.78;33.50;;;;;;;1.49;94.52;96217.34;1784895;80;20926;-56
2021/11/28 04:22:51;;;;;;;70.52;33.45;;;;;;;1.51;94.90;96217.34;1784919;80;20839;-56
2021/11/28 04:25:16;;;;;;;63.08;30.97;;;;;;;1.51;94.99;96220.02;1780842;80;21742;-57
2021/11/28 04:27:43;;;;;;;65.90;33.02;;;;;;;1.49;94.50;96223.48;1771384;79;20929;-57
2021/11/28 04:30:10;;;;;;;71.07;33.70;;;;;;;1.51;94.89;96210.66;1774454;80;21045;-57
2021/11/28 04:32:36;;;;;;;62.62;29.18;;;;;;;1.52;95.29;96204.80;1784692;80;20982;-56
2021/11/28 04:35:04;;;;;;;66.47;31.40;;;;;;;1.51;95.50;96209.33;1784649;80;21549;-57
2021/11/28 04:37:30;;;;;;;63.92;31.00;;;;;;;1.53;95.10;96211.20;1776305;79;21840;-57
2021/11/28 04:39:56;;;;;;;63.48;30.92;;;;;;;1.49;94.47;96207.47;1780575;80;21577;-56
2021/11/28 04:42:21;;;;;;;61.15;31.12;;;;;;;1.46;94.38;96204.00;1784914;80;21185;-56
2021/11/28 04:44:48;;;;;;;115.72;52.55;;;;;;;1.45;94.24;96214.39;1772276;80;20941;-56
2021/11/28 04:47:15;;;;;;;136.95;58.58;;;;;;;1.43;94.60;96201.05;1771300;79;21566;-57
2021/11/28 04:49:42;;;;;;;75.30;37.85;;;;;;;1.46;95.38;96198.67;1771026;80;22278;-56
2021/11/28 04:52:08;;;;;;;72.00;37.42;;;;;;;1.47;96.21;96198.94;1776199;80;21256;-56
2021/11/28 04:54:34;;;;;;;71.65;36.35;;;;;;;1.50;96.72;96190.38;1785113;79;21009;-56
2021/11/28 04:57:00;;;;;;;87.70;47.95;;;;;;;1.54;96.34;96194.14;1784867;80;20961;-57
2021/11/28 04:59:26;;;;;;;85.03;47.73;;;;;;;1.57;95.32;96188.79;1777855;79;21683;-56
2021/11/28 05:01:52;;;;;;;80.00;42.35;;;;;;;1.54;94.75;96190.13;1771303;80;21427;-57
2021/11/28 05:04:17;;;;;;;82.02;44.03;;;;;;;1.49;94.52;96198.66;1770987;81;20834;-56
2021/11/28 05:06:43;;;;;;;81.00;44.60;;;;;;;1.43;94.41;96211.19;1771320;80;20949;-56
2021/11/28 05:09:09;;;;;;;87.70;44.90;;;;;;;1.36;94.50;96216.78;1771195;79;21005;-56
2021/11/28 05:11:36;;;;;;;81.67;44.75;;;;;;;1.36;95.67;96221.31;1771447;81;21045;-56
2021/11/28 05:14:01;;;;;;;96.42;44.98;;;;;;;1.40;94.84;96218.41;1771179;79;21698;-57
2021/11/28 05:16:28;;;;;;;84.62;44.40;;;;;;;1.39;95.73;96212.27;1771254;81;20901;-56
2021/11/28 05:18:53;;;;;;;85.67;44.27;;;;;;;1.38;96.08;96206.66;1770906;79;20989;-57
2021/11/28 05:21:19;;;;;;;83.10;43.05;;;;;;;1.43;96.01;96191.17;1771437;81;20859;-57
2021/11/28 05:23:45;;;;;;;77.75;39.80;;;;;;;1.46;95.89;96187.99;1771111;79;21167;-57
2021/11/28 05:26:11;;;;;;;75.92;38.88;;;;;;;1.47;95.88;96185.59;1771400;81;22454;-57
2021/11/28 05:28:37;;;;;;;84.28;42.08;;;;;;;1.47;95.70;96181.58;1771153;79;21013;-56
2021/11/28 05:31:03;;;;;;;84.22;37.50;;;;;;;1.49;95.49;96182.64;1771337;80;20942;-56
2021/11/28 05:33:29;;;;;;;74.45;39.78;;;;;;;1.53;95.31;96183.16;1771441;79;21015;-57
2021/11/28 05:35:55;;;;;;;80.30;37.35;;;;;;;1.54;95.06;96196.81;1771317;80;21693;-57
2021/11/28 05:38:22;;;;;;;74.55;37.80;;;;;;;1.54;95.52;96181.30;1742519;80;21422;-56
2021/11/28 05:40:48;;;;;;;78.78;39.50;;;;;;;1.60;95.38;96184.24;1784837;79;21053;-56
2021/11/28 05:43:14;;;;;;;73.47;39.08;;;;;;;1.62;95.51;96183.44;1784682;79;20894;-56
2021/11/28 05:45:40;;;;;;;74.20;35.73;;;;;;;1.67;95.29;96186.91;1778201;80;21006;-57
2021/11/28 05:48:06;;;;;;;79.15;36.98;;;;;;;1.74;95.20;96188.53;1771126;79;21061;-56
2021/11/28 05:50:32;;;;;;;81.57;40.60;;;;;;;1.79;95.02;96195.19;1771407;80;21693;-56
2021/11/28 05:52:58;;;;;;;74.37;36.23;;;;;;;1.82;95.09;96186.66;1780756;80;21009;-56
2021/11/28 05:55:24;;;;;;;71.92;34.58;;;;;;;1.80;95.37;96182.92;1784843;79;21040;-56
2021/11/28 05:57:51;;;;;;;71.53;33.80;;;;;;;1.80;95.43;96178.91;1784599;79;21267;-56
2021/11/28 06:00:18;;;;;;;68.60;33.83;;;;;;;1.77;95.50;96175.96;1784710;79;20985;-56
2021/11/28 06:02:44;;;;;;;75.08;34.27;;;;;;;1.76;94.95;96175.16;1774337;79;21600;-56
2021/11/28 06:05:11;;;;;;;77.20;42.03;;;;;;;1.74;94.54;96183.19;1771017;81;20977;-57
2021/11/28 06:07:38;;;;;;;78.80;40.05;;;;;;;1.72;94.51;96178.66;1771149;79;20994;-56
2021/11/28 06:10:05;;;;;;;76.07;39.03;;;;;;;1.66;94.35;96179.98;1778384;80;21205;-56
2021/11/28 06:12:31;;;;;;;79.87;39.03;;;;;;;1.62;94.52;96174.92;1771287;79;21483;-57
2021/11/28 06:14:57;;;;;;;83.67;40.48;;;;;;;1.66;94.67;96175.97;1771232;81;21461;-57
2021/11/28 06:17:23;;;;;;;73.70;36.50;;;;;;;1.66;95.37;96171.97;1771151;79;20882;-57
2021/11/28 06:19:49;;;;;;;72.82;35.48;;;;;;;1.67;95.46;96166.89;1771043;81;20957;-57
2021/11/28 06:22:15;;;;;;;81.72;43.68;;;;;;;1.69;95.46;96161.28;1771134;79;21198;-56
2021/11/28 06:24:41;;;;;;;87.37;43.83;;;;;;;1.65;95.49;96165.56;1771346;81;20886;-56
2021/11/28 06:27:07;;;;;;;88.82;43.10;;;;;;;1.62;95.56;96176.25;1771339;79;21584;-57
2021/11/28 06:29:34;;;;;;;89.47;43.17;;;;;;;1.64;95.36;96182.13;1771088;81;21024;-56
2021/11/28 06:32:00;;;;;;;92.62;47.48;;;;;;;1.62;94.82;96181.59;1771336;81;21064;-56
2021/11/28 06:34:26;;;;;;;94.90;49.45;;;;;;;1.60;94.67;96174.36;1771251;80;20945;-57
2021/11/28 06:36:54;;;;;;;88.70;46.85;;;;;;;1.59;95.22;96166.63;1759797;80;21079;-57
2021/11/28 06:39:21;;;;;;;90.83;42.93;;;;;;;1.62;94.83;96155.40;1770093;80;21465;-56
2021/11/28 06:41:47;;;;;;;81.37;41.08;;;;;;;1.60;94.60;96157.01;1771193;81;21471;-56
2021/11/28 06:44:13;;;;;;;93.42;42.88;;;;;;;1.60;94.53;96163.68;1770981;79;21494;-56
2021/11/28 06:46:40;;;;;;;91.30;42.67;;;;;;;1.58;94.36;96156.48;1771611;81;21001;-56
2021/11/28 06:49:06;;;;;;;94.58;52.13;;;;;;;1.57;94.83;96149.55;1770978;79;21056;-56
2021/11/28 06:51:31;;;;;;;86.53;47.65;;;;;;;1.60;95.70;96150.87;1773058;80;21687;-56
2021/11/28 06:53:57;;;;;;;85.57;49.13;;;;;;;1.61;94.85;96155.14;1780817;80;21624;-56
2021/11/28 06:56:23;;;;;;;86.75;46.00;;;;;;;1.59;95.27;96158.08;1771396;81;20895;-56
2021/11/28 06:58:49;;;;;;;97.25;50.28;;;;;;;1.63;94.89;96159.16;1771236;79;20886;-57
2021/11/28 07:01:15;;;;;;;103.53;53.83;;;;;;;1.66;94.83;96151.14;1771573;81;21142;-56
2021/11/28 07:03:41;;;;;;;96.90;52.55;;;;;;;1.76;95.04;96157.80;1771090;79;21548;-56
2021/11/28 07:06:07;;;;;;;103.07;54.53;;;;;;;1.83;95.01;96144.19;1771526;80;20862;-56
2021/11/28 07:08:33;;;;;;;95.17;55.45;;;;;;;1.86;95.42;96141.77;1771191;79;20874;-56
2021/11/28 07:10:59;;;;;;;102.92;51.65;;;;;;;1.88;95.06;96132.97;1771815;81;20977;-56
2021/11/28 07:13:26;;;;;;;95.38;49.33;;;;;;;1.93;94.62;96134.81;1771471;79;20843;-56
2021/11/28 07:15:52;;;;;;;94.58;49.10;;;;;;;1.90;94.50;96132.16;1771193;80;21569;-57
2021/11/28 07:18:18;;;;;;;95.85;50.35;;;;;;;1.92;95.02;96131.34;1771246;79;21664;-56
2021/11/28 07:20:44;;;;;;;90.70;46.80;;;;;;;1.98;95.54;96128.14;1771400;80;20901;-56
2021/11/28 07:23:10;;;;;;;81.95;43.35;;;;;;;2.01;95.74;96121.45;1771369;79;20937;-56
2021/11/28 07:25:35;;;;;;;80.72;41.92;;;;;;;2.06;95.41;96126.25;1777134;80;20879;-57
2021/11/28 07:28:02;;;;;;;89.65;46.25;;;;;;;2.13;95.38;96126.74;1784915;79;22429;-57
2021/11/28 07:30:28;;;;;;;66.82;34.55;;;;;;;2.20;94.92;96127.26;1784561;79;20993;-56
2021/11/28 07:32:55;;;;;;;70.32;35.50;;;;;;;2.26;94.44;96124.05;1784831;80;21095;-56
2021/11/28 07:35:21;;;;;;;58.63;30.45;;;;;;;2.36;94.13;96122.67;1784565;79;21049;-57
2021/11/28 07:37:47;;;;;;;54.73;32.23;;;;;;;2.49;94.08;96123.97;1764590;80;20901;-57
2021/11/28 07:40:13;;;;;;;56.45;28.75;;;;;;;2.60;94.08;96116.70;1776486;80;22366;-56
2021/11/28 07:42:39;;;;;;;48.55;27.27;;;;;;;2.74;94.22;96126.53;1784678;79;21049;-57
2021/11/28 07:45:06;;;;;;;62.23;35.48;;;;;;;2.87;94.21;96131.80;1784682;79;20993;-57
2021/11/28 07:47:32;;;;;;;68.28;38.00;;;;;;;2.95;94.12;96124.53;1784906;79;21056;-57
2021/11/28 07:49:58;;;;;;;63.40;35.75;;;;;;;3.01;94.01;96114.61;1784799;80;20998;-56
2021/11/28 07:52:24;;;;;;;71.42;34.88;;;;;;;3.04;93.39;96110.03;1778627;80;21730;-56
2021/11/28 07:54:50;;;;;;;60.85;32.13;;;;;;;3.06;93.41;96100.63;1771196;80;20941;-57
2021/11/28 07:57:16;;;;;;;68.33;36.93;;;;;;;3.20;93.41;96114.20;1771323;79;20937;-57
2021/11/28 07:59:42;;;;;;;63.23;34.08;;;;;;;3.22;92.31;96106.69;1772144;80;20934;-57
2021/11/28 08:02:08;;;;;;;78.28;38.73;;;;;;;3.24;92.73;96109.08;1784839;79;21056;-57
2021/11/28 08:04:34;;;;;;;113.45;55.83;;;;;;;3.27;92.98;96115.23;1784808;80;21515;-57
2021/11/28 08:07:02;;;;;;;104.32;52.78;;;;;;;3.28;92.95;96116.83;1784882;80;20937;-57
2021/11/28 08:09:28;;;;;;;86.92;45.95;;;;;;;3.31;92.52;96115.72;1784872;79;21002;-57
2021/11/28 08:11:54;;;;;;;80.15;43.48;;;;;;;3.38;92.22;96110.05;1784834;80;20984;-56
2021/11/28 08:14:20;;;;;;;57.98;33.58;;;;;;;3.46;92.13;96112.67;1784840;80;20867;-57
2021/11/28 08:16:46;;;;;;;53.30;27.95;;;;;;;3.54;92.39;96117.42;1773445;80;21869;-57
2021/11/28 08:19:12;;;;;;;54.65;29.30;;;;;;;3.61;91.15;96108.53;1770876;80;20997;-57
2021/11/28 08:21:38;;;;;;;46.65;26.68;;;;;;;3.67;91.53;96106.05;1783119;80;21008;-57
2021/11/28 08:24:06;;;;;;;47.43;25.65;;;;;;;3.76;91.81;96103.55;1784732;80;20933;-57
2021/11/28 08:26:34;;;;;;;47.80;28.30;;;;;;;3.72;91.42;96104.67;1780055;79;20993;-57
2021/11/28 08:29:00;;;;;;;54.50;30.95;;;;;;;3.75;91.43;96108.12;1771039;81;22312;-57
2021/11/28 08:31:26;;;;;;;52.15;34.50;;;;;;;3.74;91.01;96110.55;1771240;80;20994;-56
2021/11/28 08:33:52;;;;;;;45.73;27.93;;;;;;;3.68;89.80;96106.33;1771139;80;20877;-57
2021/11/28 08:36:23;;;;;;;44.42;27.90;;;;;;;3.70;90.59;96108.18;1766881;81;20953;-57
2021/11/28 08:38:47;;;;;;;116.17;68.22;;;;;;;3.75;90.98;96105.44;1749337;80;20982;-56
2021/11/28 08:41:14;;;;;;;62.60;36.42;;;;;;;3.76;90.23;96112.42;1784430;80;21149;-56
2021/11/28 08:43:41;;;;;;;48.68;26.45;;;;;;;3.76;90.26;96115.61;1782272;79;21033;-56
2021/11/28 08:46:07;;;;;;;51.83;36.60;;;;;;;3.80;90.81;96112.64;1779921;80;21001;-56
2021/11/28 08:48:33;;;;;;;48.58;29.27;;;;;;;3.73;89.79;96106.27;1784745;79;20999;-56
2021/11/28 08:50:59;;;;;;;73.78;49.30;;;;;;;3.71;90.39;96108.44;1776590;79;21009;-56
2021/11/28 08:53:26;;;;;;;60.90;33.83;;;;;;;3.56;89.82;96117.94;1783736;79;21529;-57
2021/11/28 08:55:52;;;;;;;59.77;34.35;;;;;;;3.48;90.09;96118.00;1784706;79;21440;-56
2021/11/28 08:58:18;;;;;;;68.97;38.98;;;;;;;3.34;89.99;96105.80;1784911;80;20977;-56
2021/11/28 09:00:43;;;;;;;56.53;33.50;;;;;;;3.33;90.28;96103.38;1784861;80;20815;-56
2021/11/28 09:03:09;;;;;;;60.63;38.23;;;;;;;3.33;90.39;96103.38;1784857;80;20871;-57
2021/11/28 09:05:35;;;;;;;62.05;43.15;;;;;;;3.37;90.67;96095.87;1784741;80;21328;-57
2021/11/28 09:08:02;;;;;;;70.05;43.65;;;;;;;3.40;90.47;96095.30;1784740;80;21421;-56
2021/11/28 09:10:29;;;;;;;60.45;36.23;;;;;;;3.40;90.26;96100.65;1784720;79;20997;-56
2021/11/28 09:12:59;;;;;;;50.15;29.05;;;;;;;3.45;90.48;96101.16;1784868;79;21201;-56
2021/11/28 09:15:25;;;;;;;52.88;29.85;;;;;;;3.53;90.51;96101.90;1779629;80;21029;-56
2021/11/28 09:18:00;;;;;;;52.17;31.00;;;;;;;3.54;90.70;96102.16;1771349;79;21146;-56
2021/11/28 09:20:24;;;;;;;58.50;29.72;;;;;;;3.58;90.43;96102.38;1782910;80;20966;-57
2021/11/28 09:25:24;;;;;;;84.62;49.15;;;;;;;3.63;90.44;96094.31;1784603;80;21006;-56
2021/11/28 09:27:52;;;;;;;64.07;35.08;;;;;;;3.71;90.69;96088.34;1784745;80;21016;-56
2021/11/28 09:30:20;;;;;;;57.03;31.37;;;;;;;3.80;90.78;96083.97;1785022;80;21421;-56
2021/11/28 09:32:46;;;;;;;67.70;38.08;;;;;;;3.82;90.29;96074.30;1778042;79;20897;-57
2021/11/28 09:35:12;;;;;;;65.17;40.67;;;;;;;3.79;89.78;96074.88;1771274;81;20969;-57
2021/11/28 09:37:38;;;;;;;55.25;31.55;;;;;;;3.82;89.84;96074.30;1749934;80;20827;-56
2021/11/28 09:40:05;;;;;;;48.70;27.73;;;;;;;3.85;89.56;96063.04;1774186;80;21032;-56
2021/11/28 09:42:40;;;;;;;58.23;31.50;;;;;;;3.70;88.38;96053.27;1784745;79;21554;-56
2021/11/28 09:45:08;;;;;;;65.70;35.85;;;;;;;3.60;88.81;96052.83;1774040;79;20994;-56
2021/11/28 09:47:34;;;;;;;55.52;31.02;;;;;;;3.79;89.27;96057.47;1771271;79;21494;-57
2021/11/28 09:50:06;;;;;;;98.52;46.68;;;;;;;3.93;89.64;96056.52;1771294;80;21350;-56
2021/11/28 09:52:31;;;;;;;56.05;31.02;;;;;;;4.01;89.39;96049.70;1778152;80;21012;-57
2021/11/28 09:55:00;;;;;;;45.67;26.30;;;;;;;3.92;89.14;96041.49;1767215;80;21587;-56
2021/11/28 09:57:26;;;;;;;46.53;28.30;;;;;;;4.03;89.28;96031.48;1784766;80;21073;-56
2021/11/28 09:59:53;;;;;;;47.50;26.00;;;;;;;4.12;89.54;96026.28;1782923;79;21135;-57
2021/11/28 10:02:22;;;;;;;49.63;28.85;;;;;;;4.27;89.27;96023.94;1771056;79;21525;-56
2021/11/28 10:04:48;;;;;;;55.25;35.33;;;;;;;4.40;88.40;96020.02;1771386;81;21479;-57
2021/11/28 10:07:15;;;;;;;50.52;29.05;;;;;;;4.56;88.65;96014.45;1771310;79;21375;-57
2021/11/28 10:09:42;;;;;;;53.90;30.97;;;;;;;4.65;89.04;96014.06;1771964;80;20986;-57
2021/11/28 10:12:18;;;;;;;69.35;40.50;;;;;;;4.77;89.28;96011.72;1784925;80;21606;-57
2021/11/28 10:14:48;;;;;;;71.28;41.08;;;;;;;4.66;87.56;96000.34;1779485;79;21005;-56
2021/11/28 10:17:16;;;;;;;56.37;33.33;;;;;;;4.58;87.72;95985.45;1771162;79;21014;-56
2021/11/28 10:19:42;;;;;;;49.38;28.60;;;;;;;4.58;87.74;95985.45;1771121;81;22111;-57
2021/11/28 10:22:08;;;;;;;57.33;32.40;;;;;;;4.72;88.55;95989.80;1771173;80;20869;-57
2021/11/28 10:24:34;;;;;;;53.80;31.33;;;;;;;4.84;88.47;95981.30;1771604;81;20889;-56
2021/11/28 10:27:10;;;;;;;53.00;29.37;;;;;;;4.84;88.13;95978.61;1771082;80;21026;-57
2021/11/28 10:29:40;;;;;;;50.58;29.57;;;;;;;4.83;88.31;95964.16;1771848;80;21298;-57
2021/11/28 10:32:09;;;;;;;44.55;25.35;;;;;;;4.72;87.67;95965.66;1784485;79;21726;-57
2021/11/28 10:34:43;;;;;;;47.40;29.02;;;;;;;4.68;87.68;95965.17;1785101;80;20994;-57
2021/11/28 10:37:19;;;;;;;52.62;29.50;;;;;;;4.67;88.03;95957.67;1777975;80;21013;-56
2021/11/28 10:39:49;;;;;;;58.80;30.23;;;;;;;4.67;88.38;95955.53;1770401;80;21558;-57
2021/11/28 10:42:22;;;;;;;53.60;27.77;;;;;;;4.67;88.38;95962.24;1771219;79;21173;-56
2021/11/28 10:45:16;;;;;;;45.83;26.55;;;;;;;4.71;88.59;95965.41;1772268;80;22304;-57
2021/11/28 10:47:54;;;;;;;49.42;28.17;;;;;;;4.73;88.48;95961.09;1784797;80;21637;-57
2021/11/28 10:50:33;;;;;;;57.85;34.03;;;;;;;4.71;88.37;95961.38;1777354;80;21484;-56
2021/11/28 10:53:09;;;;;;;60.95;39.75;;;;;;;4.73;88.36;95949.81;1774720;79;24962;-56
2021/11/28 10:55:45;;;;;;;51.28;32.13;;;;;;;4.65;87.54;95942.42;1771669;80;21056;-57
2021/11/28 10:58:21;;;;;;;52.15;31.10;;;;;;;4.73;88.03;95942.30;1771282;79;21267;-57
2021/11/28 11:00:52;;;;;;;47.62;27.82;;;;;;;4.81;88.35;95939.75;1771307;80;21072;-56
2021/11/28 11:03:21;;;;;;;97.27;47.03;;;;;;;4.92;88.39;95937.69;1771745;79;21069;-56
2021/11/28 11:05:49;;;;;;;60.98;41.13;;;;;;;4.98;88.49;95931.16;1784983;79;20978;-56
2021/11/28 11:08:16;;;;;;;53.63;31.70;;;;;;;4.81;86.86;95924.99;1784863;79;20970;-56
2021/11/28 11:10:47;;;;;;;50.40;32.50;;;;;;;4.77;87.10;95924.52;1784947;79;21744;-57
2021/11/28 11:13:19;;;;;;;41.70;27.32;;;;;;;4.72;87.21;95926.75;1784740;79;21021;-56
2021/11/28 11:15:48;;;;;;;43.85;26.55;;;;;;;4.76;87.81;95929.09;1784982;80;20954;-56
2021/11/28 11:18:17;;;;;;;45.95;25.82;;;;;;;4.69;87.68;95916.59;1784847;79;21061;-56
2021/11/28 11:20:49;;;;;;;49.53;25.88;;;;;;;4.54;87.35;95935.62;1785182;79;20993;-56
2021/11/28 11:23:39;;;;;;;94.52;58.10;;;;;;;4.54;87.77;95931.60;1784264;79;21443;-56
2021/11/28 11:26:18;;;;;;;50.78;28.12;;;;;;;4.56;88.01;95931.30;1782286;79;21545;-56
2021/11/28 11:29:14;;;;;;;48.75;28.95;;;;;;;4.55;88.26;95928.38;1766520;80;21025;-57